Time;durP1;ratioP1;P1;durP2;ratioP2;P2;SDS_P1;SDS_P2;PMS_P1;PMS_P2;Temp;Humidity;BMP_temperature;BMP_pressure;BME280_temperature;BME280_humidity;BME280_pressure;Samples;Min_cycle;Max_cycle;Signal;HPM_P1;HPM_P2
2022/02/23 00:01:35;;;;;;;10.00;1.02;;;5.40;99.90;;;;;;5004156;28;20029;-85
2022/02/23 00:04:02;;;;;;;13.75;0.70;;;5.40;99.90;;;;;;5027710;28;20381;-84
2022/02/23 00:06:28;;;;;;;11.10;0.40;;;5.30;99.90;;;;;;4999834;28;20030;-85
2022/02/23 00:08:53;;;;;;;9.32;0.60;;;5.20;99.90;;;;;;5019472;28;20039;-84
2022/02/23 00:11:19;;;;;;;5.72;0.82;;;5.30;99.90;;;;;;5020892;28;20037;-84
2022/02/23 00:13:44;;;;;;;8.95;0.43;;;5.10;99.90;;;;;;5005288;28;20124;-85
2022/02/23 00:16:10;;;;;;;9.10;0.70;;;5.20;99.90;;;;;;5020757;28;20470;-84
2022/02/23 00:18:36;;;;;;;8.77;1.00;;;5.20;99.90;;;;;;5021200;28;20025;-84
2022/02/23 00:21:01;;;;;;;16.45;0.70;;;5.20;99.90;;;;;;5004415;28;20430;-84
2022/02/23 00:23:27;;;;;;;19.88;1.90;;;5.30;99.90;;;;;;5027993;28;20037;-85
2022/02/23 00:25:53;;;;;;;9.57;1.20;;;5.40;99.90;;;;;;5019701;28;20119;-84
2022/02/23 00:28:19;;;;;;;13.38;0.80;;;5.30;99.90;;;;;;5027677;28;20028;-85
2022/02/23 00:30:44;;;;;;;7.47;0.60;;;5.30;99.90;;;;;;5013990;28;20048;-85
2022/02/23 00:33:10;;;;;;;10.60;0.80;;;5.20;99.90;;;;;;5004417;28;20037;-85
2022/02/23 00:35:36;;;;;;;6.47;0.45;;;5.20;99.90;;;;;;5004163;28;20039;-84
2022/02/23 00:38:03;;;;;;;11.25;0.52;;;5.20;99.90;;;;;;5003360;28;20095;-84
2022/02/23 00:40:28;;;;;;;15.13;0.90;;;5.20;99.90;;;;;;5019012;28;20049;-83
2022/02/23 00:42:56;;;;;;;16.13;0.82;;;5.20;99.90;;;;;;5003811;28;20065;-83
2022/02/23 00:45:22;;;;;;;12.23;0.63;;;5.20;99.90;;;;;;5019786;28;20497;-85
2022/02/23 00:47:48;;;;;;;10.40;0.70;;;5.10;99.90;;;;;;5035512;28;20057;-84
2022/02/23 00:50:14;;;;;;;6.47;0.40;;;5.00;99.90;;;;;;5035286;28;20030;-83
2022/02/23 00:52:39;;;;;;;11.40;1.23;;;5.00;99.90;;;;;;5018928;28;20037;-84
2022/02/23 00:55:05;;;;;;;9.02;0.57;;;5.00;99.90;;;;;;5020239;28;20037;-84
2022/02/23 00:57:31;;;;;;;14.23;1.00;;;4.90;99.90;;;;;;5018369;28;20025;-83
2022/02/23 00:59:57;;;;;;;7.20;0.55;;;5.00;99.90;;;;;;5027066;28;20034;-84
2022/02/23 01:02:24;;;;;;;10.85;0.60;;;5.00;99.90;;;;;;5003083;28;21732;-85
2022/02/23 01:04:50;;;;;;;15.68;1.13;;;5.00;99.90;;;;;;5026802;28;20029;-83
2022/02/23 01:07:15;;;;;;;8.48;0.80;;;5.00;99.90;;;;;;4997398;28;20382;-84
2022/02/23 01:09:42;;;;;;;9.40;0.50;;;4.90;99.90;;;;;;5003959;28;20496;-83
2022/02/23 01:12:08;;;;;;;9.77;0.80;;;5.00;99.90;;;;;;5019779;28;20033;-84
2022/02/23 01:14:33;;;;;;;15.65;0.98;;;5.00;99.90;;;;;;5015205;28;20506;-84
2022/02/23 01:16:59;;;;;;;7.60;0.55;;;5.10;99.90;;;;;;5027061;28;21702;-83
2022/02/23 01:19:25;;;;;;;12.65;0.63;;;5.10;99.90;;;;;;5002372;28;20041;-83
2022/02/23 01:21:50;;;;;;;10.60;0.60;;;5.00;99.90;;;;;;5017776;28;20041;-84
2022/02/23 01:24:16;;;;;;;10.88;1.10;;;4.90;99.90;;;;;;5002082;28;20040;-84
2022/02/23 01:26:42;;;;;;;12.07;1.00;;;4.90;99.90;;;;;;5001991;28;20033;-84
2022/02/23 01:29:07;;;;;;;9.73;0.60;;;4.80;99.90;;;;;;4995701;28;20108;-83
2022/02/23 01:31:33;;;;;;;5.45;0.57;;;4.80;99.90;;;;;;5022963;28;20047;-84
2022/02/23 01:33:59;;;;;;;8.52;0.60;;;4.80;99.90;;;;;;5030340;28;20455;-83
2022/02/23 01:36:25;;;;;;;9.43;0.65;;;4.80;99.90;;;;;;5004822;28;20048;-85
2022/02/23 01:38:50;;;;;;;6.70;0.50;;;4.80;99.90;;;;;;5038394;28;20034;-84
2022/02/23 01:41:19;;;;;;;7.45;0.88;;;4.80;99.90;;;;;;5006669;28;20434;-83
2022/02/23 01:43:49;;;;;;;12.18;1.02;;;4.80;99.90;;;;;;5022814;28;20030;-83
2022/02/23 01:46:16;;;;;;;7.07;0.40;;;4.80;99.90;;;;;;5038677;28;20025;-83
2022/02/23 01:48:41;;;;;;;13.00;1.48;;;4.70;99.90;;;;;;5021186;28;20042;-83
2022/02/23 01:51:08;;;;;;;8.18;0.47;;;4.60;99.90;;;;;;5023204;28;20032;-84
2022/02/23 01:53:34;;;;;;;6.75;0.40;;;4.60;99.90;;;;;;5022835;28;20041;-82
2022/02/23 01:56:00;;;;;;;9.35;0.40;;;4.60;99.90;;;;;;5016900;28;20495;-83
2022/02/23 01:58:26;;;;;;;5.40;0.70;;;4.60;99.90;;;;;;5022122;28;20037;-83
2022/02/23 02:00:52;;;;;;;15.38;0.60;;;4.60;99.90;;;;;;5016958;28;20033;-83
2022/02/23 02:03:18;;;;;;;6.97;0.45;;;4.50;99.90;;;;;;5006087;28;20052;-83
2022/02/23 02:05:43;;;;;;;7.82;0.47;;;4.50;99.90;;;;;;5005692;28;20037;-83
2022/02/23 02:08:09;;;;;;;7.25;0.50;;;4.50;99.90;;;;;;5006123;28;20469;-83
2022/02/23 02:10:35;;;;;;;6.95;0.50;;;4.30;99.90;;;;;;5017461;28;20034;-83
2022/02/23 02:13:01;;;;;;;7.45;0.30;;;4.30;99.90;;;;;;5021427;28;20120;-84
2022/02/23 02:15:26;;;;;;;7.88;0.30;;;4.20;99.90;;;;;;5028865;28;20131;-83
2022/02/23 02:17:52;;;;;;;6.70;0.30;;;4.30;99.90;;;;;;5028780;28;20229;-83
2022/02/23 02:20:18;;;;;;;3.67;0.30;;;4.20;99.90;;;;;;5028698;28;20146;-83
2022/02/23 02:22:44;;;;;;;2.97;0.20;;;4.00;99.90;;;;;;5022431;28;20029;-83
2022/02/23 02:25:09;;;;;;;2.22;0.20;;;4.00;99.90;;;;;;5005052;28;20037;-82
2022/02/23 02:27:35;;;;;;;2.70;0.22;;;3.90;99.90;;;;;;5005525;28;20036;-83
2022/02/23 02:30:01;;;;;;;4.82;0.20;;;3.80;99.90;;;;;;5023803;28;20742;-83
2022/02/23 02:32:27;;;;;;;4.60;0.40;;;3.70;99.90;;;;;;5021216;28;20511;-83
2022/02/23 02:34:53;;;;;;;4.93;0.28;;;3.70;99.90;;;;;;5021714;28;20144;-83
2022/02/23 02:37:19;;;;;;;5.78;0.30;;;3.70;99.90;;;;;;5028724;28;20113;-82
2022/02/23 02:39:44;;;;;;;5.10;0.32;;;3.90;99.90;;;;;;5027479;28;20040;-83
2022/02/23 02:42:10;;;;;;;5.85;0.50;;;3.80;99.90;;;;;;5004586;28;20423;-83
2022/02/23 02:44:36;;;;;;;10.18;0.98;;;3.80;99.90;;;;;;5022300;28;20057;-82
2022/02/23 02:47:02;;;;;;;5.68;0.28;;;3.70;99.90;;;;;;5028959;28;20747;-83
2022/02/23 02:49:28;;;;;;;7.68;0.70;;;3.70;99.90;;;;;;5003133;28;20029;-83
2022/02/23 02:51:54;;;;;;;7.57;0.40;;;3.80;99.90;;;;;;5021378;28;20536;-82
2022/02/23 02:54:20;;;;;;;4.13;0.30;;;3.70;99.90;;;;;;5022610;28;20080;-82
2022/02/23 02:56:46;;;;;;;3.60;0.43;;;3.60;99.90;;;;;;5028000;28;20026;-82
2022/02/23 02:59:12;;;;;;;5.75;0.25;;;3.60;99.90;;;;;;5028386;28;20469;-82
2022/02/23 03:01:37;;;;;;;4.22;0.30;;;3.60;99.90;;;;;;5022806;28;20026;-83
2022/02/23 03:04:04;;;;;;;6.30;0.55;;;3.80;99.90;;;;;;5021026;28;20056;-82
2022/02/23 03:06:30;;;;;;;4.75;0.30;;;3.60;99.90;;;;;;5037034;28;20033;-83
2022/02/23 03:08:56;;;;;;;4.95;0.32;;;3.50;99.90;;;;;;5018210;28;20087;-83
2022/02/23 03:11:22;;;;;;;3.25;0.22;;;3.60;99.90;;;;;;5011295;28;20030;-82
2022/02/23 03:13:49;;;;;;;7.40;0.40;;;3.60;99.90;;;;;;5019822;28;20044;-82
2022/02/23 03:16:15;;;;;;;3.95;0.65;;;3.60;99.90;;;;;;5023254;28;20124;-82
2022/02/23 03:18:42;;;;;;;4.82;0.30;;;3.60;99.90;;;;;;5020709;28;20022;-81
2022/02/23 03:21:08;;;;;;;7.30;0.40;;;3.60;99.90;;;;;;4998551;28;20382;-82
2022/02/23 03:23:35;;;;;;;4.43;0.30;;;3.60;99.90;;;;;;5020078;28;20025;-82
2022/02/23 03:26:00;;;;;;;5.30;0.28;;;3.50;99.90;;;;;;5020773;28;20033;-82
2022/02/23 03:28:26;;;;;;;7.70;0.50;;;3.50;99.90;;;;;;5021804;28;20411;-82
2022/02/23 03:30:52;;;;;;;6.90;0.40;;;3.50;99.90;;;;;;5003778;28;20087;-82
2022/02/23 03:33:17;;;;;;;6.10;0.40;;;3.50;99.90;;;;;;5021369;28;20482;-82
2022/02/23 03:35:45;;;;;;;7.82;0.40;;;3.60;99.90;;;;;;4998512;28;20025;-82
2022/02/23 03:38:11;;;;;;;14.75;1.48;;;3.80;99.90;;;;;;5020662;28;20083;-82
2022/02/23 03:40:38;;;;;;;12.70;0.50;;;3.80;99.90;;;;;;5004442;28;20033;-83
2022/02/23 03:43:04;;;;;;;5.60;0.40;;;3.80;99.90;;;;;;5020406;28;20099;-82
2022/02/23 03:45:31;;;;;;;11.68;0.90;;;3.90;99.90;;;;;;5009780;28;20032;-82
2022/02/23 03:47:57;;;;;;;4.15;0.43;;;3.90;99.90;;;;;;5001940;28;20501;-83
2022/02/23 03:50:23;;;;;;;6.20;0.38;;;3.90;99.90;;;;;;5020423;28;20255;-82
2022/02/23 03:52:49;;;;;;;7.72;0.43;;;3.90;99.90;;;;;;5020591;28;20033;-83
2022/02/23 03:55:14;;;;;;;8.30;0.45;;;3.80;99.90;;;;;;5012994;28;20033;-82
2022/02/23 03:57:40;;;;;;;7.38;0.75;;;3.70;99.90;;;;;;5010115;28;20048;-83
2022/02/23 04:00:09;;;;;;;8.20;0.40;;;3.80;99.90;;;;;;5004344;28;20029;-83
2022/02/23 04:02:35;;;;;;;3.28;0.40;;;3.90;99.90;;;;;;4998573;28;20493;-82
2022/02/23 04:05:02;;;;;;;11.23;0.80;;;3.90;99.90;;;;;;5026663;28;20124;-83
2022/02/23 04:07:27;;;;;;;5.35;0.50;;;3.90;99.90;;;;;;5020109;28;20033;-83
2022/02/23 04:09:53;;;;;;;7.82;0.73;;;3.80;99.90;;;;;;5020544;28;20119;-82
2022/02/23 04:12:19;;;;;;;9.73;0.80;;;3.90;99.90;;;;;;5034775;28;20041;-82
2022/02/23 04:14:46;;;;;;;7.22;0.68;;;3.80;99.90;;;;;;5018881;28;20139;-83
2022/02/23 04:17:12;;;;;;;4.25;0.45;;;3.80;99.90;;;;;;5020123;28;20037;-83
2022/02/23 04:19:38;;;;;;;11.30;0.60;;;3.80;99.90;;;;;;5019004;28;20466;-82
2022/02/23 04:22:05;;;;;;;9.20;0.60;;;3.90;99.90;;;;;;5019324;28;20390;-83
2022/02/23 04:24:31;;;;;;;4.95;0.40;;;3.90;99.90;;;;;;5003050;28;20052;-82
2022/02/23 04:26:57;;;;;;;8.63;0.43;;;3.90;99.90;;;;;;5027365;28;20029;-82
2022/02/23 04:29:22;;;;;;;4.25;0.30;;;3.60;99.90;;;;;;5017526;28;20033;-82
2022/02/23 04:31:48;;;;;;;6.82;0.30;;;3.60;99.90;;;;;;5026210;28;20612;-82
2022/02/23 04:34:14;;;;;;;6.63;0.40;;;3.60;99.90;;;;;;5025759;28;20048;-83
2022/02/23 04:36:40;;;;;;;6.22;0.40;;;3.60;99.90;;;;;;5025849;28;20029;-82
2022/02/23 04:39:07;;;;;;;5.13;0.47;;;3.60;99.90;;;;;;4998338;28;20033;-82
2022/02/23 04:41:32;;;;;;;7.20;0.80;;;3.60;99.90;;;;;;5019551;28;20407;-82
2022/02/23 04:43:58;;;;;;;6.60;1.10;;;3.80;99.90;;;;;;5019236;28;21899;-82
2022/02/23 04:46:24;;;;;;;4.53;0.43;;;3.90;99.90;;;;;;5018525;28;20478;-82
2022/02/23 04:48:50;;;;;;;6.43;0.68;;;3.70;99.90;;;;;;5003159;28;20033;-82
2022/02/23 04:51:17;;;;;;;3.95;0.40;;;3.70;99.90;;;;;;5035762;28;20029;-83
2022/02/23 04:53:43;;;;;;;3.38;0.30;;;3.70;99.90;;;;;;4985612;28;20045;-82
2022/02/23 04:56:09;;;;;;;4.80;0.50;;;3.50;99.90;;;;;;5025356;28;20029;-82
2022/02/23 04:58:35;;;;;;;3.67;0.30;;;3.60;99.90;;;;;;5034927;28;20029;-82
2022/02/23 05:01:02;;;;;;;3.92;0.30;;;3.50;99.90;;;;;;5017617;28;20025;-82
2022/02/23 05:03:28;;;;;;;4.03;0.30;;;3.50;99.90;;;;;;5000312;28;20103;-81
2022/02/23 05:05:53;;;;;;;4.43;0.30;;;3.40;99.90;;;;;;5025350;28;20112;-82
2022/02/23 05:08:20;;;;;;;4.00;0.20;;;3.50;99.90;;;;;;5035362;28;20040;-81
2022/02/23 05:10:46;;;;;;;3.42;0.22;;;3.40;99.90;;;;;;5018338;28;20033;-81
2022/02/23 05:13:17;;;;;;;4.95;0.30;;;3.30;99.90;;;;;;5018459;28;20265;-82
2022/02/23 05:15:42;;;;;;;2.97;0.30;;;3.40;99.90;;;;;;5002042;28;20413;-81
2022/02/23 05:18:09;;;;;;;4.35;0.20;;;3.30;99.90;;;;;;5025164;28;20037;-82
2022/02/23 05:20:35;;;;;;;3.50;0.45;;;3.20;99.90;;;;;;5001355;28;20132;-82
2022/02/23 05:23:01;;;;;;;4.90;0.28;;;3.30;99.90;;;;;;5012899;28;20033;-81
2022/02/23 05:25:27;;;;;;;2.13;0.13;;;3.10;99.90;;;;;;5000154;28;20572;-81
2022/02/23 05:27:53;;;;;;;3.53;0.20;;;3.10;99.90;;;;;;5017880;28;20040;-81
2022/02/23 05:30:19;;;;;;;3.08;0.30;;;3.10;99.90;;;;;;5019672;28;20022;-82
2022/02/23 05:32:45;;;;;;;1.48;0.20;;;3.00;99.90;;;;;;5034477;28;20996;-81
2022/02/23 05:35:11;;;;;;;1.85;0.20;;;2.90;99.90;;;;;;5018254;28;20037;-81
2022/02/23 05:37:37;;;;;;;1.52;0.55;;;2.80;99.90;;;;;;5017843;28;20886;-81
2022/02/23 05:40:05;;;;;;;2.60;0.20;;;2.70;99.90;;;;;;5017473;28;20362;-81
2022/02/23 05:42:31;;;;;;;1.77;0.13;;;2.70;99.90;;;;;;5015571;28;20116;-81
2022/02/23 05:44:57;;;;;;;1.50;0.10;;;2.70;99.90;;;;;;5018480;28;20120;-83
2022/02/23 05:47:22;;;;;;;3.03;0.20;;;2.60;99.90;;;;;;5013130;28;20144;-82
2022/02/23 05:49:49;;;;;;;1.02;0.15;;;2.50;99.90;;;;;;5016480;28;20479;-82
2022/02/23 05:52:15;;;;;;;1.48;0.10;;;2.50;99.90;;;;;;5012291;28;20112;-80
2022/02/23 05:54:41;;;;;;;2.30;0.20;;;2.40;99.90;;;;;;5033634;28;20631;-82
2022/02/23 05:57:07;;;;;;;1.92;0.17;;;2.30;99.90;;;;;;5015188;28;20087;-82
2022/02/23 05:59:33;;;;;;;2.67;0.20;;;2.40;99.90;;;;;;5017332;28;20034;-83
2022/02/23 06:01:59;;;;;;;0.57;0.10;;;2.30;99.90;;;;;;5034087;28;21109;-81
2022/02/23 06:04:24;;;;;;;2.67;0.13;;;2.30;99.90;;;;;;5016285;28;20029;-81
2022/02/23 06:06:50;;;;;;;1.23;0.30;;;2.20;99.90;;;;;;5033019;28;20091;-82
2022/02/23 06:09:16;;;;;;;3.67;0.30;;;2.30;99.90;;;;;;5002791;28;20119;-82
2022/02/23 06:11:43;;;;;;;2.53;0.20;;;2.30;99.90;;;;;;5033179;28;20071;-82
2022/02/23 06:14:10;;;;;;;1.92;0.20;;;2.40;99.90;;;;;;5024298;28;20068;-82
2022/02/23 06:16:36;;;;;;;2.97;0.20;;;2.30;99.90;;;;;;5017450;28;20037;-82
2022/02/23 06:19:02;;;;;;;2.60;0.10;;;2.20;99.90;;;;;;5005437;28;20111;-82
2022/02/23 06:21:28;;;;;;;5.63;0.25;;;2.20;99.90;;;;;;5004755;28;20032;-81
2022/02/23 06:23:54;;;;;;;6.07;1.40;;;2.10;99.90;;;;;;5022911;28;20026;-81
2022/02/23 06:26:20;;;;;;;3.38;0.30;;;2.20;99.90;;;;;;5017951;28;20029;-82
2022/02/23 06:28:45;;;;;;;1.27;0.10;;;2.20;99.90;;;;;;5020901;28;20044;-82
2022/02/23 06:31:14;;;;;;;2.58;0.20;;;2.20;99.90;;;;;;5003626;28;20037;-82
2022/02/23 06:33:41;;;;;;;3.50;0.20;;;2.20;99.90;;;;;;5021804;28;20466;-81
2022/02/23 06:36:08;;;;;;;5.13;0.20;;;2.10;99.90;;;;;;5004153;28;20034;-81
2022/02/23 06:38:36;;;;;;;3.65;0.30;;;2.10;99.90;;;;;;5019204;28;20096;-81
2022/02/23 06:41:06;;;;;;;4.32;0.20;;;2.20;99.90;;;;;;5023548;28;20501;-83
2022/02/23 06:43:32;;;;;;;1.15;0.10;;;2.00;99.90;;;;;;5027594;28;20033;-83
2022/02/23 06:46:00;;;;;;;1.38;0.10;;;2.00;99.90;;;;;;5020981;28;20025;-82
2022/02/23 06:48:26;;;;;;;1.33;0.10;;;2.00;99.90;;;;;;5020072;28;20084;-82
2022/02/23 06:50:51;;;;;;;2.22;0.17;;;2.00;99.90;;;;;;5020648;28;20124;-82
2022/02/23 06:53:17;;;;;;;1.00;0.10;;;2.00;99.90;;;;;;4992271;28;20037;-82
2022/02/23 06:55:44;;;;;;;1.15;0.20;;;2.00;99.90;;;;;;5021139;28;20033;-81
2022/02/23 06:58:10;;;;;;;0.93;0.20;;;1.90;99.90;;;;;;5018168;28;20392;-81
2022/02/23 07:00:37;;;;;;;3.80;0.20;;;2.00;99.90;;;;;;5019778;28;20042;-82
2022/02/23 07:03:02;;;;;;;4.63;0.30;;;2.00;99.90;;;;;;5019090;28;20034;-82
2022/02/23 07:05:28;;;;;;;2.03;0.20;;;2.00;99.90;;;;;;5019627;28;20033;-83
2022/02/23 07:07:53;;;;;;;1.67;0.30;;;2.00;99.90;;;;;;5020135;28;20233;-82
2022/02/23 07:10:25;;;;;;;4.10;0.20;;;2.00;99.90;;;;;;5002705;28;20094;-82
2022/02/23 07:12:52;;;;;;;4.35;0.20;;;2.00;99.90;;;;;;5019192;28;20034;-82
2022/02/23 07:15:19;;;;;;;3.17;0.20;;;2.30;99.90;;;;;;5019137;28;20084;-81
2022/02/23 07:17:45;;;;;;;1.65;0.20;;;2.00;99.90;;;;;;5018768;28;20184;-81
2022/02/23 07:20:11;;;;;;;4.85;0.22;;;2.10;99.90;;;;;;5015798;28;20044;-81
2022/02/23 07:22:38;;;;;;;1.77;0.20;;;2.20;99.90;;;;;;5035162;28;20025;-81
2022/02/23 07:25:06;;;;;;;2.97;0.30;;;2.20;99.90;;;;;;5020618;28;20032;-82
2022/02/23 07:27:32;;;;;;;2.03;0.30;;;2.20;99.90;;;;;;5034663;28;20504;-80
2022/02/23 07:29:57;;;;;;;2.72;0.35;;;2.20;99.90;;;;;;4997072;28;20144;-81
2022/02/23 07:32:27;;;;;;;2.80;0.20;;;2.20;99.90;;;;;;5011634;28;20033;-81
2022/02/23 07:34:53;;;;;;;1.02;0.30;;;2.20;99.90;;;;;;5035880;28;20055;-81
2022/02/23 07:37:18;;;;;;;1.50;0.20;;;2.20;99.90;;;;;;5019302;28;20405;-80
2022/02/23 07:39:45;;;;;;;3.67;0.20;;;2.30;99.90;;;;;;5025850;28;20037;-81
2022/02/23 07:42:11;;;;;;;3.03;0.20;;;2.30;99.90;;;;;;5036003;28;20629;-80
2022/02/23 07:44:37;;;;;;;2.83;0.20;;;2.30;99.90;;;;;;5001326;28;20037;-80
2022/02/23 07:47:03;;;;;;;4.45;0.20;;;2.40;99.90;;;;;;4999547;28;20139;-81
2022/02/23 07:49:29;;;;;;;2.60;0.30;;;2.40;99.90;;;;;;4999696;28;20029;-80
2022/02/23 07:51:55;;;;;;;2.83;0.30;;;2.50;99.90;;;;;;5020082;28;20111;-81
2022/02/23 07:54:21;;;;;;;2.55;0.30;;;2.60;99.90;;;;;;4992393;28;20192;-81
2022/02/23 07:56:46;;;;;;;1.63;0.25;;;2.60;99.90;;;;;;5024915;28;20024;-81
2022/02/23 07:59:12;;;;;;;2.75;0.30;;;2.80;99.90;;;;;;5035514;28;20482;-81
2022/02/23 08:01:38;;;;;;;3.20;0.30;;;2.80;99.90;;;;;;5018978;28;20029;-81
2022/02/23 08:04:05;;;;;;;1.77;0.28;;;2.90;99.90;;;;;;5017668;28;20033;-80
2022/02/23 08:06:32;;;;;;;4.10;0.30;;;2.90;99.90;;;;;;5031877;28;20129;-80
2022/02/23 08:08:59;;;;;;;1.42;0.40;;;2.90;99.90;;;;;;5019514;28;20400;-81
2022/02/23 08:11:26;;;;;;;1.83;0.28;;;3.20;99.90;;;;;;5018783;28;20653;-81
2022/02/23 08:13:58;;;;;;;2.88;0.50;;;3.40;99.90;;;;;;5017918;28;20046;-80
2022/02/23 08:21:59;;;;;;;1.67;0.28;;;3.70;99.90;;;;;;5019801;28;20056;-81
2022/02/23 08:24:29;;;;;;;1.15;0.22;;;3.70;99.90;;;;;;5034516;28;20033;-80
2022/02/23 08:26:56;;;;;;;1.58;0.20;;;3.90;99.90;;;;;;5018340;28;20083;-81
2022/02/23 08:29:23;;;;;;;4.07;0.40;;;4.10;99.90;;;;;;5003487;28;20046;-81
2022/02/23 08:31:49;;;;;;;3.20;0.40;;;4.20;99.90;;;;;;4995246;28;20470;-81
2022/02/23 08:34:15;;;;;;;5.45;0.50;;;4.30;99.90;;;;;;5000214;28;20048;-81
2022/02/23 08:36:41;;;;;;;5.28;0.50;;;4.50;99.90;;;;;;5017482;28;20029;-81
2022/02/23 08:39:07;;;;;;;3.20;0.50;;;4.60;99.90;;;;;;4999098;28;20044;-81
2022/02/23 08:41:34;;;;;;;5.15;0.60;;;4.80;99.90;;;;;;5001643;28;20102;-81
2022/02/23 08:44:00;;;;;;;5.03;0.90;;;5.10;99.90;;;;;;4994626;28;20029;-81
2022/02/23 08:46:26;;;;;;;6.30;0.50;;;5.20;99.90;;;;;;5001157;28;20029;-81
2022/02/23 08:48:52;;;;;;;3.60;0.52;;;5.40;99.90;;;;;;5019976;28;20321;-81
2022/02/23 08:51:18;;;;;;;2.47;0.50;;;5.40;99.90;;;;;;5016247;28;20033;-82
2022/02/23 08:53:44;;;;;;;4.57;0.52;;;5.60;99.90;;;;;;5011999;28;20038;-82
2022/02/23 08:56:12;;;;;;;4.78;0.50;;;5.70;99.90;;;;;;4995578;28;20025;-82
2022/02/23 08:58:38;;;;;;;4.00;0.40;;;5.80;99.90;;;;;;5018276;28;20136;-82
2022/02/23 09:01:03;;;;;;;3.95;0.55;;;6.00;99.90;;;;;;5018053;28;20029;-82
2022/02/23 09:03:29;;;;;;;5.28;0.60;;;6.10;99.90;;;;;;4993695;28;20512;-82
2022/02/23 09:05:55;;;;;;;8.65;0.68;;;6.20;99.90;;;;;;5019547;28;20362;-81
2022/02/23 09:08:20;;;;;;;4.95;1.02;;;6.20;99.90;;;;;;5018140;28;20032;-81
2022/02/23 09:10:46;;;;;;;5.10;1.23;;;6.40;99.90;;;;;;5017367;28;20037;-81
2022/02/23 09:13:11;;;;;;;6.28;1.40;;;6.40;99.90;;;;;;5024736;28;20113;-83
2022/02/23 09:15:37;;;;;;;5.40;0.60;;;6.60;99.90;;;;;;5018991;28;20034;-82
2022/02/23 09:18:03;;;;;;;7.82;1.10;;;6.60;99.90;;;;;;5019599;28;20539;-82
2022/02/23 09:20:29;;;;;;;5.78;0.75;;;6.60;99.90;;;;;;5034717;28;20041;-82
2022/02/23 09:22:55;;;;;;;7.03;0.90;;;6.70;99.90;;;;;;5019003;28;20099;-82
2022/02/23 09:25:21;;;;;;;4.50;0.88;;;6.80;99.90;;;;;;5000237;28;20037;-83
2022/02/23 09:27:47;;;;;;;4.20;0.80;;;6.90;99.90;;;;;;5019969;28;20034;-82
2022/02/23 09:30:14;;;;;;;5.68;0.98;;;7.10;99.90;;;;;;4985377;28;20033;-84
2022/02/23 09:32:41;;;;;;;8.48;1.42;;;7.20;99.90;;;;;;5017770;28;20113;-83
2022/02/23 09:35:09;;;;;;;9.65;1.52;;;7.20;99.90;;;;;;5033786;28;20046;-83
2022/02/23 09:37:35;;;;;;;4.97;0.98;;;7.30;99.90;;;;;;5016095;28;20068;-82
2022/02/23 09:40:02;;;;;;;6.38;0.70;;;7.40;99.90;;;;;;5000743;28;20033;-83
2022/02/23 09:42:29;;;;;;;4.90;0.70;;;7.50;99.90;;;;;;5015468;28;20061;-83
2022/02/23 09:44:59;;;;;;;7.38;1.08;;;7.60;99.90;;;;;;5025051;28;20025;-83
2022/02/23 09:47:26;;;;;;;4.28;0.68;;;7.80;99.90;;;;;;5034547;28;22058;-85
2022/02/23 09:49:53;;;;;;;2.15;0.60;;;7.80;99.90;;;;;;5018188;28;20145;-82
2022/02/23 09:52:23;;;;;;;8.15;1.42;;;7.70;99.90;;;;;;5035804;28;20040;-83
2022/02/23 09:54:49;;;;;;;6.82;1.38;;;7.90;99.90;;;;;;5021774;28;20073;-85
2022/02/23 09:57:15;;;;;;;5.60;1.40;;;8.00;99.90;;;;;;5029979;28;20448;-84
2022/02/23 09:59:41;;;;;;;10.15;1.30;;;8.00;99.90;;;;;;5023244;28;20029;-84
2022/02/23 10:02:10;;;;;;;5.07;1.60;;;8.00;99.90;;;;;;5022131;28;20659;-84
2022/02/23 10:04:36;;;;;;;5.18;1.17;;;8.20;99.90;;;;;;5021315;28;20571;-84
2022/02/23 10:07:02;;;;;;;4.55;1.00;;;8.40;99.90;;;;;;5005190;28;20049;-85
2022/02/23 10:09:28;;;;;;;7.78;1.80;;;8.50;99.90;;;;;;5003092;28;20032;-84
2022/02/23 10:11:54;;;;;;;10.00;2.13;;;8.50;99.90;;;;;;5023079;28;21736;-85
2022/02/23 10:14:19;;;;;;;5.72;2.58;;;8.40;99.90;;;;;;5027983;28;20395;-86
2022/02/23 10:16:47;;;;;;;6.10;1.70;;;8.60;99.90;;;;;;5019086;28;20034;-86
2022/02/23 10:19:22;;;;;;;7.13;2.80;;;8.70;99.90;;;;;;5022750;28;20033;-85
2022/02/23 10:21:59;;;;;;;7.80;2.00;;;8.60;99.90;;;;;;5005980;28;20021;-86
2022/02/23 10:24:32;;;;;;;10.93;3.20;;;8.70;99.90;;;;;;5021834;28;20094;-88
2022/02/23 10:27:07;;;;;;;8.38;2.95;;;8.70;99.90;;;;;;5004164;28;20105;-85
2022/02/23 10:29:50;;;;;;;10.20;3.60;;;8.70;99.90;;;;;;5022660;28;20401;-86
2022/02/23 10:32:16;;;;;;;11.82;3.08;;;8.70;99.90;;;;;;5022766;28;20044;-87
2022/02/23 10:34:47;;;;;;;8.95;3.40;;;8.70;99.90;;;;;;5023463;28;20046;-87
2022/02/23 10:37:18;;;;;;;8.15;1.85;;;8.90;99.90;;;;;;5003749;28;20531;-88
2022/02/23 10:39:50;;;;;;;7.47;1.88;;;9.10;99.90;;;;;;5037571;28;20041;-86
2022/02/23 10:42:19;;;;;;;9.77;2.38;;;9.20;99.90;;;;;;5005032;28;20041;-87
2022/02/23 10:44:47;;;;;;;10.90;2.05;;;9.10;99.90;;;;;;5037293;28;20087;-88
2022/02/23 10:47:26;;;;;;;7.53;1.95;;;9.30;99.90;;;;;;5021796;28;20065;-88
2022/02/23 10:50:14;;;;;;;8.77;1.92;;;9.40;99.90;;;;;;5020260;28;20152;-87
2022/02/23 10:52:42;;;;;;;7.70;1.90;;;9.30;99.90;;;;;;5023025;28;20060;-88
2022/02/23 10:55:22;;;;;;;8.70;1.75;;;9.50;99.90;;;;;;5022238;28;20041;-88
2022/02/23 10:57:55;;;;;;;6.97;0.98;;;9.60;99.90;;;;;;5038964;28;20060;-87
2022/02/23 11:00:24;;;;;;;6.22;1.90;;;9.80;99.90;;;;;;5018959;28;20601;-89
2022/02/23 11:02:51;;;;;;;10.65;1.83;;;9.90;99.90;;;;;;5004582;28;20499;-87
2022/02/23 11:05:22;;;;;;;7.65;1.45;;;9.80;99.90;;;;;;5022946;28;20033;-88
2022/02/23 11:07:49;;;;;;;5.53;1.02;;;9.90;99.90;;;;;;5022338;28;20037;-87
2022/02/23 11:10:14;;;;;;;10.85;1.55;;;10.00;99.90;;;;;;5021468;28;20071;-89
2022/02/23 11:12:46;;;;;;;6.82;1.85;;;10.00;99.90;;;;;;5022207;28;20033;-88
2022/02/23 11:15:19;;;;;;;7.93;1.30;;;10.10;99.90;;;;;;5021827;28;20393;-87
2022/02/23 11:17:46;;;;;;;6.35;1.17;;;10.20;99.90;;;;;;5022068;28;20096;-90
2022/02/23 11:20:27;;;;;;;6.80;1.15;;;10.10;99.90;;;;;;5005143;28;20049;-87
2022/02/23 11:22:56;;;;;;;6.97;1.30;;;10.20;99.90;;;;;;5036659;28;20127;-88
2022/02/23 11:25:35;;;;;;;8.80;0.90;;;10.20;99.90;;;;;;5021776;28;20033;-87
2022/02/23 11:28:11;;;;;;;4.13;0.50;;;10.40;99.90;;;;;;5004999;28;20132;-88
2022/02/23 11:30:36;;;;;;;6.63;0.60;;;10.60;99.90;;;;;;5021538;28;20570;-88
2022/02/23 11:33:04;;;;;;;6.25;0.80;;;10.40;99.90;;;;;;5021537;28;20061;-88
2022/02/23 11:35:48;;;;;;;7.75;0.77;;;10.30;99.90;;;;;;5020945;28;20374;-86
2022/02/23 11:38:20;;;;;;;7.65;0.70;;;10.40;99.90;;;;;;5001550;28;20053;-87
2022/02/23 11:40:48;;;;;;;5.05;0.50;;;10.50;99.90;;;;;;5037257;28;20091;-88
2022/02/23 11:43:32;;;;;;;5.80;0.50;;;10.70;99.90;;;;;;5002320;28;20125;-87
2022/02/23 11:46:00;;;;;;;5.55;0.50;;;10.60;99.90;;;;;;5002790;28;20037;-90
2022/02/23 11:48:49;;;;;;;4.50;0.60;;;10.60;99.90;;;;;;5017735;28;20061;-89
2022/02/23 11:51:30;;;;;;;6.80;0.60;;;10.70;99.90;;;;;;5020509;28;20111;-90
2022/02/23 11:53:56;;;;;;;3.15;0.40;;;10.60;99.90;;;;;;5020862;28;20038;-90
2022/02/23 11:56:22;;;;;;;6.22;0.60;;;10.70;99.90;;;;;;5016386;28;20061;-90
2022/02/23 11:58:50;;;;;;;5.35;0.70;;;10.70;99.90;;;;;;5034116;28;20096;-90
2022/02/23 12:01:17;;;;;;;2.85;0.40;;;10.70;99.90;;;;;;5022443;28;20030;-88
2022/02/23 12:04:05;;;;;;;3.60;0.45;;;10.70;99.90;;;;;;5021090;28;21803;-89
2022/02/23 12:07:10;;;;;;;6.22;0.50;;;10.70;99.90;;;;;;5037241;28;20021;-89
2022/02/23 12:09:57;;;;;;;5.95;0.50;;;10.80;99.90;;;;;;5025920;28;20041;-91
2022/02/23 12:12:32;;;;;;;6.53;0.50;;;11.00;99.90;;;;;;5005163;28;20037;-91
2022/02/23 12:15:01;;;;;;;3.10;0.32;;;11.00;99.90;;;;;;5036661;28;20123;-89
2022/02/23 12:17:47;;;;;;;3.38;0.40;;;11.10;99.90;;;;;;5021217;28;20116;-89
2022/02/23 12:20:34;;;;;;;2.78;0.30;;;11.30;99.90;;;;;;5020720;28;20025;-90
2022/02/23 12:23:10;;;;;;;4.60;0.40;;;11.20;99.90;;;;;;5020133;28;20156;-91
2022/02/23 12:25:48;;;;;;;5.88;0.50;;;11.10;99.90;;;;;;5002829;28;20041;-91
2022/02/23 12:28:15;;;;;;;4.78;0.50;;;11.00;99.90;;;;;;5021583;28;20135;-90
2022/02/23 12:30:40;;;;;;;5.30;0.70;;;11.00;99.90;;;;;;5036822;28;20474;-89
2022/02/23 12:33:14;;;;;;;6.22;0.50;;;11.20;99.90;;;;;;5010857;28;20036;-90
2022/02/23 12:35:41;;;;;;;5.95;0.57;;;11.30;99.90;;;;;;5021218;28;20041;-88
2022/02/23 12:38:07;;;;;;;3.65;0.47;;;11.10;99.90;;;;;;5014286;28;20025;-87
2022/02/23 12:40:34;;;;;;;4.18;0.40;;;11.20;99.90;;;;;;5019173;28;20511;-90
2022/02/23 12:43:07;;;;;;;6.63;0.50;;;11.20;99.90;;;;;;5020885;28;20033;-91
2022/02/23 12:45:49;;;;;;;3.17;0.60;;;11.20;99.90;;;;;;5037585;28;20040;-91
2022/02/23 12:48:15;;;;;;;3.92;0.40;;;11.10;99.90;;;;;;5020842;28;20048;-90
2022/02/23 12:50:41;;;;;;;2.95;0.28;;;11.30;99.90;;;;;;5004866;28;20033;-90
2022/02/23 12:53:07;;;;;;;4.07;0.40;;;11.50;99.90;;;;;;5020332;28;20033;-90
2022/02/23 12:55:33;;;;;;;8.02;0.40;;;11.40;99.90;;;;;;5019678;28;20037;-85
2022/02/23 12:57:58;;;;;;;3.22;0.35;;;11.40;99.90;;;;;;5021218;28;20609;-90
2022/02/23 13:00:26;;;;;;;5.53;0.50;;;11.40;99.90;;;;;;5027462;28;20152;-87
2022/02/23 13:02:52;;;;;;;3.08;0.30;;;11.40;99.90;;;;;;5020412;28;20087;-90